Accueil
METAR-TAF:

METAR-TAF

Aéroports :

Aéroport de Bou Saâda

Bou Saâda, Algérie

latitude: 35-20N, longitude: 004-12E, altitude: 461 m

Observation

Le bulletin a été fait il y a 53 minutes, à 12:00 UTC
Vent 6 kt de est
Température 40°C
Humidité 15%
Pression 1013 hPa
Visibilité: 7000 m

METAR: DAAD 131200Z 08006KT 7000 NSC 40/08 Q1013

Heure: 13:53 (12:53 UTC)

Prévision

Le bulletin a été fait il y a 1 heure et 53 minutes, à 11:00 UTC
Prévision valable du 13 à 12 UTC au 13 à 21 UTC
Vent 5 kt de est
Visibilité: 8000 m
Quelques nuages à une hauteur de 3300 ft

TAF: DAAD 131100Z 1312/1321 10005KT 8000 FEW033

Observations et prévisions météorologiques de plus de 4000 aéroports (messages METAR et TAF).

Les stations disponibles sont représentées par des disques jaunes et rouges sur la carte.

Passer la souris dessus pour voir le nom de la station.

Cliquer dessus pour voir les observations et prévisions météorologiques.

Pour changer de carte: cliquez sur les boutons verts avec une croix noire pour zoomer, sur le bouton vert avec un tiret pour effectuer un zoom arrière, ou sur les flèches vertes pour les cartes adjacentes.


METAR-TAF: